createdAt,value
2023-05-08T00:02:03.302Z,4.23
2023-05-08T00:04:31.310Z,4.50
2023-05-08T00:06:59.522Z,4.80
2023-05-08T00:09:27.505Z,4.40
2023-05-08T00:11:55.449Z,5.07
2023-05-08T00:14:23.509Z,5.00
2023-05-08T00:16:52.872Z,4.87
2023-05-08T00:19:21.123Z,5.00
2023-05-08T00:21:49.092Z,4.87
2023-05-08T00:24:17.040Z,4.87
2023-05-08T00:26:45.775Z,5.00
2023-05-08T00:29:13.783Z,4.60
2023-05-08T00:31:41.772Z,5.10
2023-05-08T00:34:11.120Z,4.97
2023-05-08T00:36:39.175Z,5.20
2023-05-08T00:39:07.189Z,4.90
2023-05-08T00:41:35.206Z,4.90
2023-05-08T00:44:03.253Z,4.97
2023-05-08T00:46:31.984Z,5.20
2023-05-08T00:49:02.933Z,5.20
2023-05-08T00:51:32.955Z,5.10
2023-05-08T00:54:03.931Z,4.93
2023-05-08T00:56:33.545Z,4.97
2023-05-08T00:59:01.632Z,5.17
2023-05-08T01:01:30.081Z,4.97
2023-05-08T01:03:58.880Z,4.93
2023-05-08T01:06:26.862Z,5.00
2023-05-08T01:08:58.755Z,5.00
2023-05-08T01:11:35.204Z,5.27
2023-05-08T01:14:13.678Z,5.13
2023-05-08T01:16:46.150Z,5.17
2023-05-08T01:19:37.813Z,5.00
2023-05-08T01:22:13.660Z,5.03
2023-05-08T01:25:05.845Z,4.93
2023-05-08T01:28:07.677Z,5.17
2023-05-08T01:30:56.396Z,5.47
2023-05-08T01:33:33.431Z,5.10
2023-05-08T01:36:12.881Z,5.50
2023-05-08T01:38:48.890Z,6.17
2023-05-08T01:41:19.786Z,5.47
2023-05-08T01:43:54.723Z,5.77
2023-05-08T01:46:27.810Z,5.37
2023-05-08T01:49:04.913Z,5.30
2023-05-08T01:51:40.164Z,5.60
2023-05-08T01:54:13.703Z,5.30
2023-05-08T01:56:44.686Z,5.30
2023-05-08T01:59:15.942Z,5.43
2023-05-08T02:01:46.183Z,4.60
2023-05-08T02:04:16.602Z,5.17
2023-05-08T02:06:45.202Z,4.93
2023-05-08T02:09:13.661Z,4.87
2023-05-08T02:11:45.047Z,5.00
2023-05-08T02:14:14.519Z,4.57
2023-05-08T02:16:44.548Z,4.23
2023-05-08T02:19:14.077Z,4.50
2023-05-08T02:21:45.316Z,4.30
2023-05-08T02:24:15.458Z,4.53
2023-05-08T02:26:45.125Z,4.40
2023-05-08T02:29:13.401Z,4.60
2023-05-08T02:31:42.915Z,4.67
2023-05-08T02:34:12.176Z,4.13
2023-05-08T02:36:40.825Z,4.43
2023-05-08T02:39:17.619Z,4.63
2023-05-08T02:41:46.103Z,3.90
2023-05-08T02:44:14.288Z,4.60
2023-05-08T02:46:49.217Z,4.50
2023-05-08T02:49:30.965Z,4.50
2023-05-08T02:52:05.488Z,4.50
2023-05-08T02:54:43.356Z,4.43
2023-05-08T02:57:24.136Z,4.30
2023-05-08T02:59:58.614Z,4.70
2023-05-08T03:02:34.772Z,5.70
2023-05-08T03:05:07.979Z,4.67
2023-05-08T03:07:41.844Z,4.77
2023-05-08T03:10:15.444Z,4.60
2023-05-08T03:12:46.831Z,4.43
2023-05-08T03:15:20.447Z,4.73
2023-05-08T03:17:49.922Z,4.50
2023-05-08T03:20:20.649Z,4.47
2023-05-08T03:22:49.739Z,4.20
2023-05-08T03:25:20.958Z,4.43
2023-05-08T03:27:50.210Z,4.47
2023-05-08T03:30:18.939Z,4.60
2023-05-08T03:32:48.810Z,4.73
2023-05-08T03:35:17.672Z,4.97
2023-05-08T03:37:45.857Z,4.73
2023-05-08T03:40:14.448Z,4.73
2023-05-08T03:42:45.204Z,5.00
2023-05-08T03:45:15.234Z,5.33
2023-05-08T03:47:44.571Z,5.13
2023-05-08T03:50:12.895Z,5.10
2023-05-08T03:52:41.242Z,4.90
2023-05-08T03:55:10.463Z,5.57
2023-05-08T03:57:46.871Z,6.23
2023-05-08T04:00:20.666Z,5.23
2023-05-08T04:02:57.569Z,5.03
2023-05-08T04:05:37.463Z,5.53
2023-05-08T04:08:16.774Z,5.77
2023-05-08T04:10:49.440Z,5.27
2023-05-08T04:13:22.414Z,5.10
2023-05-08T04:15:53.421Z,4.97
2023-05-08T04:18:29.357Z,5.30
2023-05-08T04:20:58.964Z,5.57
2023-05-08T04:23:27.596Z,5.30
2023-05-08T04:25:57.005Z,6.00
2023-05-08T04:28:26.600Z,5.50
2023-05-08T04:30:56.454Z,5.37
2023-05-08T04:33:25.348Z,5.63
2023-05-08T04:35:53.833Z,5.13
2023-05-08T04:38:23.215Z,5.80
2023-05-08T04:40:51.199Z,5.87
2023-05-08T04:43:19.509Z,5.53
2023-05-08T04:45:49.418Z,5.43
2023-05-08T04:48:18.934Z,5.87
2023-05-08T04:50:46.920Z,5.40
2023-05-08T04:53:17.897Z,5.73
2023-05-08T04:55:45.880Z,5.43
2023-05-08T04:58:14.094Z,6.17
2023-05-08T05:00:44.474Z,5.40
2023-05-08T05:03:14.956Z,5.27
2023-05-08T05:05:43.113Z,5.17
2023-05-08T05:08:11.112Z,6.10
2023-05-08T05:10:39.931Z,5.97
2023-05-08T05:13:10.993Z,5.50
2023-05-08T05:15:38.958Z,4.97
2023-05-08T05:18:07.028Z,5.17
2023-05-08T05:20:37.367Z,4.63
2023-05-08T05:23:05.420Z,5.47
2023-05-08T05:25:33.346Z,4.37
2023-05-08T05:28:02.853Z,5.40
2023-05-08T05:30:30.976Z,5.30
2023-05-08T05:32:59.199Z,5.27
2023-05-08T05:35:27.244Z,4.77
2023-05-08T05:37:56.953Z,4.77
2023-05-08T05:40:24.990Z,4.43
2023-05-08T05:42:54.002Z,5.03
2023-05-08T05:45:21.967Z,4.60
2023-05-08T05:47:50.705Z,4.80
2023-05-08T05:50:19.243Z,4.83
2023-05-08T05:52:47.354Z,5.10
2023-05-08T05:55:17.170Z,4.97
2023-05-08T05:57:45.226Z,4.67
2023-05-08T06:00:13.828Z,4.73
2023-05-08T06:02:42.086Z,4.80
2023-05-08T06:05:11.451Z,4.60
2023-05-08T06:07:39.743Z,5.23
2023-05-08T06:10:09.402Z,4.30
2023-05-08T06:12:38.976Z,5.50
2023-05-08T06:15:08.205Z,5.50
2023-05-08T06:17:36.216Z,4.90
2023-05-08T06:20:07.339Z,5.00
2023-05-08T06:22:37.661Z,5.33
2023-05-08T06:25:07.044Z,5.47
2023-05-08T06:27:35.432Z,4.90
2023-05-08T06:30:07.809Z,5.07
2023-05-08T06:32:35.818Z,4.90
2023-05-08T06:35:06.635Z,4.53
2023-05-08T06:37:37.499Z,4.77
2023-05-08T06:40:11.992Z,5.27
2023-05-08T06:42:41.222Z,4.97
2023-05-08T06:45:11.588Z,4.77
2023-05-08T06:47:39.860Z,4.93
2023-05-08T06:50:08.748Z,4.27
2023-05-08T06:52:36.713Z,4.77
2023-05-08T06:55:05.316Z,4.90
2023-05-08T06:57:33.374Z,4.60
2023-05-08T07:00:01.308Z,4.43
2023-05-08T07:02:30.730Z,3.93
2023-05-08T07:04:58.782Z,3.87
2023-05-08T07:07:26.745Z,4.07
2023-05-08T07:09:56.314Z,4.10
2023-05-08T07:12:24.257Z,4.00
2023-05-08T07:14:52.273Z,4.40
2023-05-08T07:17:20.226Z,4.07
2023-05-08T07:19:53.196Z,4.43
2023-05-08T07:22:21.195Z,3.87
2023-05-08T07:24:50.168Z,4.00
2023-05-08T07:27:18.105Z,3.80
2023-05-08T07:29:46.131Z,3.33
2023-05-08T07:32:15.226Z,3.40
2023-05-08T07:34:43.194Z,3.93
2023-05-08T07:37:12.914Z,3.27
2023-05-08T07:39:41.081Z,3.67
2023-05-08T07:42:09.032Z,3.77
2023-05-08T07:44:43.643Z,3.37
2023-05-08T07:47:20.313Z,3.87
2023-05-08T07:49:48.361Z,3.53
2023-05-08T07:52:17.754Z,3.33
2023-05-08T07:54:46.026Z,3.17
2023-05-08T07:57:14.004Z,3.20
2023-05-08T07:59:42.057Z,3.20
2023-05-08T08:02:10.102Z,3.10
2023-05-08T08:04:39.440Z,3.57
2023-05-08T08:07:07.521Z,3.20
2023-05-08T08:09:39.630Z,3.37
2023-05-08T08:12:07.801Z,3.10
2023-05-08T08:14:35.842Z,3.57
2023-05-08T08:17:06.702Z,2.87
2023-05-08T08:19:34.771Z,3.60
2023-05-08T08:22:04.559Z,3.90
2023-05-08T08:24:35.048Z,3.57
2023-05-08T08:27:04.724Z,3.70
2023-05-08T08:29:32.698Z,3.23
2023-05-08T08:32:03.127Z,3.20
2023-05-08T08:34:31.109Z,3.33
2023-05-08T08:36:59.048Z,3.20
2023-05-08T08:39:27.091Z,2.70
2023-05-08T08:41:56.489Z,3.20
2023-05-08T08:44:25.807Z,2.77
2023-05-08T08:46:54.427Z,3.10
2023-05-08T08:49:29.655Z,2.57
2023-05-08T08:52:02.899Z,2.90
2023-05-08T08:54:34.670Z,2.80
2023-05-08T08:57:07.067Z,3.10
2023-05-08T08:59:39.102Z,2.53
2023-05-08T09:02:11.458Z,2.70
2023-05-08T09:04:39.534Z,3.30
2023-05-08T09:07:08.683Z,2.80
2023-05-08T09:09:41.130Z,2.93
2023-05-08T09:12:09.630Z,2.90
2023-05-08T09:14:39.036Z,3.17
2023-05-08T09:17:07.141Z,2.70
2023-05-08T09:19:35.979Z,2.97
2023-05-08T09:22:06.868Z,2.90
2023-05-08T09:24:57.736Z,2.73
2023-05-08T09:27:27.366Z,2.77
2023-05-08T09:30:04.966Z,2.87
2023-05-08T09:32:34.254Z,2.77
2023-05-08T09:35:03.529Z,2.90
2023-05-08T09:37:31.973Z,3.20
2023-05-08T09:40:18.670Z,3.27
2023-05-08T09:42:47.142Z,2.80
2023-05-08T09:45:28.088Z,3.17
2023-05-08T09:47:56.243Z,3.43
2023-05-08T09:50:25.364Z,3.07
2023-05-08T09:52:55.763Z,3.47
2023-05-08T09:55:23.923Z,3.13
2023-05-08T09:57:57.138Z,3.03
2023-05-08T10:00:27.532Z,3.20
2023-05-08T10:02:57.032Z,3.67
2023-05-08T10:05:27.230Z,3.30
2023-05-08T10:07:55.841Z,3.50
2023-05-08T10:10:26.677Z,3.63
2023-05-08T10:12:55.618Z,3.43
2023-05-08T10:15:26.674Z,3.30
2023-05-08T10:18:04.754Z,3.23
2023-05-08T10:20:33.820Z,3.00
2023-05-08T10:23:04.746Z,3.20
2023-05-08T10:25:36.408Z,3.30
2023-05-08T10:28:12.150Z,3.40
2023-05-08T10:30:49.573Z,3.30
2023-05-08T10:33:22.544Z,2.60
2023-05-08T10:35:50.923Z,3.00
2023-05-08T10:38:20.233Z,3.13
2023-05-08T10:40:50.593Z,2.90
2023-05-08T10:43:19.914Z,3.20
2023-05-08T10:45:49.634Z,3.33
2023-05-08T10:48:26.694Z,2.97
2023-05-08T10:51:02.307Z,2.90
2023-05-08T10:53:37.789Z,2.70
2023-05-08T10:56:06.335Z,2.80
2023-05-08T10:58:37.180Z,3.03
2023-05-08T11:01:17.775Z,2.50
2023-05-08T11:03:51.449Z,2.53
2023-05-08T11:06:40.585Z,2.70
2023-05-08T11:09:08.725Z,2.53
2023-05-08T11:11:39.949Z,2.50
2023-05-08T11:14:17.482Z,2.63
2023-05-08T11:17:06.721Z,2.40
2023-05-08T11:19:38.379Z,2.30
2023-05-08T11:22:17.952Z,2.30
2023-05-08T11:24:51.138Z,2.17
2023-05-08T11:27:19.476Z,2.30
2023-05-08T11:30:20.303Z,2.23
2023-05-08T11:33:00.178Z,2.40
2023-05-08T11:35:50.887Z,2.70
2023-05-08T11:38:21.212Z,2.50
2023-05-08T11:40:53.113Z,2.50
2023-05-08T11:43:41.605Z,2.60
2023-05-08T11:46:16.519Z,2.80
2023-05-08T11:48:46.198Z,2.60
2023-05-08T11:51:14.667Z,2.40
2023-05-08T11:53:44.716Z,2.20
2023-05-08T11:56:12.781Z,2.40
2023-05-08T11:58:40.749Z,2.20
2023-05-08T12:01:08.710Z,2.03
2023-05-08T12:03:36.923Z,2.77
2023-05-08T12:06:07.130Z,2.50
2023-05-08T12:08:40.494Z,2.37
2023-05-08T12:11:08.494Z,2.63
2023-05-08T12:13:36.545Z,2.30
2023-05-08T12:16:04.576Z,2.37
2023-05-08T12:18:32.647Z,2.30
2023-05-08T12:21:02.336Z,2.10
2023-05-08T12:23:31.790Z,2.10
2023-05-08T12:26:01.535Z,2.47
2023-05-08T12:28:29.689Z,2.30
2023-05-08T12:30:57.971Z,2.10
2023-05-08T12:33:26.301Z,2.13
2023-05-08T12:35:54.348Z,2.53
2023-05-08T12:38:27.109Z,3.03
2023-05-08T12:40:56.923Z,2.90
2023-05-08T12:43:33.203Z,2.50
2023-05-08T12:46:01.524Z,2.40
2023-05-08T12:48:29.696Z,2.40
2023-05-08T12:51:03.705Z,2.30
2023-05-08T12:53:33.814Z,2.40
2023-05-08T12:56:06.764Z,2.47
2023-05-08T12:58:35.833Z,2.30
2023-05-08T13:01:10.252Z,2.27
2023-05-08T13:03:38.823Z,2.50
2023-05-08T13:06:07.109Z,2.10
2023-05-08T13:08:36.599Z,1.97
2023-05-08T13:11:07.156Z,2.20
2023-05-08T13:13:36.615Z,2.47
2023-05-08T13:16:05.942Z,1.90
2023-05-08T13:18:36.144Z,2.07
2023-05-08T13:21:04.192Z,1.80
2023-05-08T13:23:32.143Z,2.20
2023-05-08T13:26:00.275Z,2.13
2023-05-08T13:28:29.689Z,2.30
2023-05-08T13:30:59.711Z,2.40
2023-05-08T13:33:27.690Z,1.87
2023-05-08T13:35:57.015Z,2.07
2023-05-08T13:38:25.057Z,2.10
2023-05-08T13:40:54.423Z,2.10
2023-05-08T13:43:22.345Z,2.07
2023-05-08T13:45:51.768Z,2.00
2023-05-08T13:48:19.833Z,1.93
2023-05-08T13:50:47.761Z,2.00
2023-05-08T13:53:18.174Z,2.10
2023-05-08T13:55:46.214Z,2.27
2023-05-08T13:58:16.645Z,1.97
2023-05-08T14:00:45.388Z,2.03
2023-05-08T14:03:14.941Z,1.83
2023-05-08T14:05:45.688Z,2.27
2023-05-08T14:08:13.836Z,2.10
2023-05-08T14:10:41.817Z,2.00
2023-05-08T14:13:09.870Z,2.10
2023-05-08T14:15:38.899Z,2.00
2023-05-08T14:18:07.307Z,2.20
2023-05-08T14:20:36.808Z,2.07
2023-05-08T14:23:04.788Z,2.40
2023-05-08T14:25:32.761Z,2.07
2023-05-08T14:28:00.729Z,2.20
2023-05-08T14:30:28.812Z,2.10
2023-05-08T14:32:56.782Z,2.70
2023-05-08T14:35:27.783Z,2.00
2023-05-08T14:37:57.116Z,2.30
2023-05-08T14:40:25.188Z,2.80
2023-05-08T14:42:54.123Z,2.30
2023-05-08T14:45:22.283Z,2.30
2023-05-08T14:47:50.299Z,2.20
2023-05-08T14:50:18.459Z,2.37
2023-05-08T14:52:46.518Z,2.30
2023-05-08T14:55:20.645Z,2.07
2023-05-08T14:57:49.111Z,2.40
2023-05-08T15:00:18.588Z,2.43
2023-05-08T15:02:46.644Z,2.70
2023-05-08T15:05:19.993Z,2.43
2023-05-08T15:07:50.081Z,2.30
2023-05-08T15:10:19.835Z,2.50
2023-05-08T15:12:47.841Z,2.43
2023-05-08T15:15:16.426Z,2.23
2023-05-08T15:17:44.600Z,2.30
2023-05-08T15:20:12.826Z,2.33
2023-05-08T15:22:40.788Z,2.30
2023-05-08T15:25:09.120Z,4.20
2023-05-08T15:27:38.528Z,2.50
2023-05-08T15:30:07.654Z,2.07
2023-05-08T15:32:40.140Z,2.13
2023-05-08T15:35:08.767Z,2.67
2023-05-08T15:37:38.041Z,2.40
2023-05-08T15:40:07.460Z,2.20
2023-05-08T15:42:40.159Z,2.10
2023-05-08T15:45:09.202Z,2.20
2023-05-08T15:47:37.207Z,2.23
2023-05-08T15:50:05.425Z,2.33
2023-05-08T15:52:33.370Z,2.23
2023-05-08T15:55:01.644Z,2.10
2023-05-08T15:57:29.587Z,2.30
2023-05-08T15:59:58.898Z,2.20
2023-05-08T16:02:26.982Z,2.20
2023-05-08T16:04:55.302Z,2.40
2023-05-08T16:07:23.250Z,2.00
2023-05-08T16:09:51.220Z,1.93
2023-05-08T16:12:19.697Z,2.57
2023-05-08T16:14:47.736Z,2.23
2023-05-08T16:17:17.368Z,2.20
2023-05-08T16:19:45.304Z,2.23
2023-05-08T16:22:13.250Z,2.30
2023-05-08T16:24:41.458Z,2.43
2023-05-08T16:27:09.429Z,2.30
2023-05-08T16:29:37.638Z,2.30
2023-05-08T16:32:05.938Z,2.50
2023-05-08T16:34:38.522Z,2.10
2023-05-08T16:37:06.550Z,2.57
2023-05-08T16:39:35.491Z,2.57
2023-05-08T16:42:03.434Z,2.20
2023-05-08T16:44:31.483Z,2.27
2023-05-08T16:46:59.577Z,2.60
2023-05-08T16:49:27.575Z,2.60
2023-05-08T16:51:59.817Z,2.60
2023-05-08T16:54:27.817Z,2.57
2023-05-08T16:56:57.288Z,2.63
2023-05-08T16:59:27.439Z,2.50
2023-05-08T17:01:58.201Z,2.70
2023-05-08T17:04:27.308Z,2.70
2023-05-08T17:06:56.121Z,2.67
2023-05-08T17:09:25.432Z,2.90
2023-05-08T17:11:53.407Z,2.53
2023-05-08T17:14:21.416Z,2.60
2023-05-08T17:16:49.419Z,2.23
2023-05-08T17:19:17.454Z,2.20
2023-05-08T17:21:45.476Z,2.90
2023-05-08T17:24:13.473Z,3.10
2023-05-08T17:26:42.962Z,2.77
2023-05-08T17:29:11.250Z,2.50
2023-05-08T17:31:39.310Z,2.60
2023-05-08T17:34:07.384Z,2.50
2023-05-08T17:36:35.433Z,2.90
2023-05-08T17:39:03.445Z,2.90
2023-05-08T17:41:31.424Z,2.83
2023-05-08T17:44:00.778Z,2.77
2023-05-08T17:46:28.731Z,2.90
2023-05-08T17:48:56.714Z,2.57
2023-05-08T17:51:27.686Z,2.77
2023-05-08T17:53:56.431Z,3.13
2023-05-08T17:56:24.485Z,2.97
2023-05-08T17:58:53.243Z,2.70
2023-05-08T18:01:23.228Z,2.80
2023-05-08T18:03:55.364Z,2.70
2023-05-08T18:06:23.459Z,3.03
2023-05-08T18:08:51.453Z,3.00
2023-05-08T18:11:20.174Z,3.00
2023-05-08T18:13:48.553Z,3.37
2023-05-08T18:16:18.351Z,3.60
2023-05-08T18:18:49.345Z,3.37
2023-05-08T18:21:17.413Z,4.27
2023-05-08T18:23:46.459Z,4.33
2023-05-08T18:26:15.660Z,4.17
2023-05-08T18:28:43.831Z,4.60
2023-05-08T18:31:11.974Z,4.97
2023-05-08T18:33:40.061Z,5.30
2023-05-08T18:36:09.495Z,6.40
2023-05-08T18:38:37.483Z,7.20
2023-05-08T18:41:06.366Z,7.17
2023-05-08T18:43:37.122Z,6.03
2023-05-08T18:46:13.377Z,5.23
2023-05-08T18:48:41.843Z,5.57
2023-05-08T18:51:11.662Z,6.17
2023-05-08T18:53:40.702Z,4.83
2023-05-08T18:56:08.701Z,5.10
2023-05-08T18:58:39.401Z,6.17
2023-05-08T19:01:07.577Z,6.60
2023-05-08T19:03:35.614Z,5.87
2023-05-08T19:06:03.705Z,5.70
2023-05-08T19:08:33.060Z,4.97
2023-05-08T19:11:01.026Z,5.57
2023-05-08T19:13:29.056Z,6.23
2023-05-08T19:15:57.159Z,6.13
2023-05-08T19:18:25.219Z,6.50
2023-05-08T19:20:53.195Z,6.47
2023-05-08T19:23:21.173Z,6.30
2023-05-08T19:25:50.654Z,6.53
2023-05-08T19:28:18.701Z,6.40
2023-05-08T19:30:46.913Z,5.90
2023-05-08T19:33:20.365Z,6.30
2023-05-08T19:35:48.674Z,5.93
2023-05-08T19:38:16.970Z,6.13
2023-05-08T19:40:55.491Z,6.23
2023-05-08T19:43:26.553Z,6.40
2023-05-08T19:45:54.872Z,6.73
2023-05-08T19:48:23.003Z,6.47
2023-05-08T19:50:54.467Z,6.73
2023-05-08T19:53:23.148Z,6.97
2023-05-08T19:55:51.222Z,7.23
2023-05-08T19:58:19.222Z,6.83
2023-05-08T20:00:51.672Z,6.93
2023-05-08T20:03:20.052Z,7.47
2023-05-08T20:05:48.172Z,7.60
2023-05-08T20:08:19.209Z,7.27
2023-05-08T20:10:48.876Z,8.13
2023-05-08T20:13:17.534Z,7.63
2023-05-08T20:15:46.111Z,7.10
2023-05-08T20:18:17.063Z,7.13
2023-05-08T20:20:47.885Z,7.50
2023-05-08T20:23:16.167Z,6.90
2023-05-08T20:25:47.985Z,8.00
2023-05-08T20:28:18.791Z,7.50
2023-05-08T20:30:47.143Z,7.37
2023-05-08T20:33:19.379Z,6.97
2023-05-08T20:35:47.351Z,7.33
2023-05-08T20:38:16.061Z,7.60
2023-05-08T20:40:46.923Z,7.33
2023-05-08T20:43:16.786Z,7.10
2023-05-08T20:45:44.838Z,6.80
2023-05-08T20:48:12.897Z,7.50
2023-05-08T20:50:42.483Z,7.17
2023-05-08T20:53:10.695Z,7.37
2023-05-08T20:55:38.791Z,7.77
2023-05-08T20:58:08.735Z,7.40
2023-05-08T21:00:36.731Z,7.77
2023-05-08T21:03:07.495Z,7.87
2023-05-08T21:05:36.941Z,7.87
2023-05-08T21:08:06.399Z,7.37
2023-05-08T21:10:34.412Z,6.87
2023-05-08T21:13:02.439Z,7.30
2023-05-08T21:15:30.460Z,7.30
2023-05-08T21:17:58.470Z,7.23
2023-05-08T21:20:26.482Z,7.10
2023-05-08T21:22:54.440Z,7.37
2023-05-08T21:25:26.067Z,7.13
2023-05-08T21:27:55.408Z,7.97
2023-05-08T21:30:23.604Z,7.23
2023-05-08T21:32:51.637Z,7.83
2023-05-08T21:35:20.049Z,7.00
2023-05-08T21:37:48.028Z,7.43
2023-05-08T21:40:16.023Z,7.10
2023-05-08T21:42:47.718Z,7.40
2023-05-08T21:45:15.895Z,6.37
2023-05-08T21:47:44.052Z,7.77
2023-05-08T21:50:12.913Z,6.70
2023-05-08T21:52:40.854Z,7.10
2023-05-08T21:55:10.089Z,7.77
2023-05-08T21:57:38.391Z,7.47
2023-05-08T22:00:09.385Z,7.23
2023-05-08T22:02:37.758Z,7.73
2023-05-08T22:05:07.511Z,8.33
2023-05-08T22:07:35.601Z,7.37
2023-05-08T22:10:03.939Z,7.27
2023-05-08T22:12:31.957Z,7.30
2023-05-08T22:14:59.965Z,7.50
2023-05-08T22:17:29.681Z,7.20
2023-05-08T22:19:57.725Z,7.00
2023-05-08T22:22:25.713Z,6.93
2023-05-08T22:24:53.769Z,7.87
2023-05-08T22:27:21.765Z,7.33
2023-05-08T22:29:49.696Z,7.50
2023-05-08T22:32:17.998Z,7.63
2023-05-08T22:34:49.714Z,7.77
2023-05-08T22:37:17.898Z,8.20
2023-05-08T22:39:45.934Z,8.07
2023-05-08T22:42:14.011Z,8.60
2023-05-08T22:44:42.478Z,8.77
2023-05-08T22:47:11.226Z,8.03
2023-05-08T22:49:40.846Z,8.47
2023-05-08T22:52:10.728Z,8.40
2023-05-08T22:54:38.771Z,8.10
2023-05-08T22:57:06.688Z,8.40
2023-05-08T22:59:34.760Z,7.37
2023-05-08T23:02:02.719Z,7.80
2023-05-08T23:04:30.763Z,8.43
2023-05-08T23:06:58.744Z,8.27
2023-05-08T23:09:28.124Z,8.20
2023-05-08T23:11:56.074Z,8.50
2023-05-08T23:14:25.738Z,8.60
2023-05-08T23:16:53.760Z,7.70
2023-05-08T23:19:21.819Z,8.43
2023-05-08T23:21:50.057Z,8.60
2023-05-08T23:24:19.840Z,7.97
2023-05-08T23:26:49.691Z,8.13
2023-05-08T23:29:17.658Z,8.50
2023-05-08T23:31:45.757Z,7.60
2023-05-08T23:34:13.819Z,8.83
2023-05-08T23:36:41.764Z,7.43
2023-05-08T23:39:09.734Z,8.27
2023-05-08T23:41:38.900Z,8.53
2023-05-08T23:44:08.332Z,8.77
2023-05-08T23:46:36.569Z,8.90
2023-05-08T23:49:05.310Z,9.10
2023-05-08T23:51:33.506Z,8.27
2023-05-08T23:54:01.456Z,8.93
2023-05-08T23:56:30.608Z,9.33
2023-05-08T23:58:58.658Z,8.83
